sensor_id;sensor_type;location;lat;lon;timestamp;temperature;humidity
21085;DHT22;34247;50.064;19.970;2023-02-22T00:00:50;24.10;24.60
21085;DHT22;34247;50.064;19.970;2023-02-22T00:02:03;24.10;24.10
21085;DHT22;34247;50.064;19.970;2023-02-22T00:03:17;24.10;24.10
21085;DHT22;34247;50.064;19.970;2023-02-22T00:04:28;24.20;24.10
21085;DHT22;34247;50.064;19.970;2023-02-22T00:05:34;24.20;24.00
21085;DHT22;34247;50.064;19.970;2023-02-22T00:06:38;24.20;24.10
21085;DHT22;34247;50.064;19.970;2023-02-22T00:07:48;24.10;24.00
21085;DHT22;34247;50.064;19.970;2023-02-22T00:08:55;24.10;24.10
21085;DHT22;34247;50.064;19.970;2023-02-22T00:10:00;24.20;24.10
21085;DHT22;34247;50.064;19.970;2023-02-22T00:11:09;24.20;24.10
21085;DHT22;34247;50.064;19.970;2023-02-22T00:12:14;24.10;24.10
21085;DHT22;34247;50.064;19.970;2023-02-22T00:13:24;24.10;24.10
21085;DHT22;34247;50.064;19.970;2023-02-22T00:14:32;24.10;24.20
21085;DHT22;34247;50.064;19.970;2023-02-22T00:15:38;24.10;24.20
21085;DHT22;34247;50.064;19.970;2023-02-22T00:16:51;24.10;24.20
21085;DHT22;34247;50.064;19.970;2023-02-22T00:17:56;24.10;24.30
21085;DHT22;34247;50.064;19.970;2023-02-22T00:19:00;24.10;24.30
21085;DHT22;34247;50.064;19.970;2023-02-22T00:20:08;24.10;24.30
21085;DHT22;34247;50.064;19.970;2023-02-22T00:21:24;24.00;24.30
21085;DHT22;34247;50.064;19.970;2023-02-22T00:22:30;24.00;24.40
21085;DHT22;34247;50.064;19.970;2023-02-22T00:23:33;24.00;24.40
21085;DHT22;34247;50.064;19.970;2023-02-22T00:24:37;24.00;24.40
21085;DHT22;34247;50.064;19.970;2023-02-22T00:25:42;24.10;24.40
21085;DHT22;34247;50.064;19.970;2023-02-22T00:26:53;24.00;24.40
21085;DHT22;34247;50.064;19.970;2023-02-22T00:27:59;24.10;24.40
21085;DHT22;34247;50.064;19.970;2023-02-22T00:29:03;24.10;24.40
21085;DHT22;34247;50.064;19.970;2023-02-22T00:30:22;24.10;24.30
21085;DHT22;34247;50.064;19.970;2023-02-22T00:31:39;24.10;24.30
21085;DHT22;34247;50.064;19.970;2023-02-22T00:32:45;24.10;24.30
21085;DHT22;34247;50.064;19.970;2023-02-22T00:33:49;24.10;24.30
21085;DHT22;34247;50.064;19.970;2023-02-22T00:34:55;24.10;24.30
21085;DHT22;34247;50.064;19.970;2023-02-22T00:35:59;24.10;24.40
21085;DHT22;34247;50.064;19.970;2023-02-22T00:37:05;24.10;24.40
21085;DHT22;34247;50.064;19.970;2023-02-22T00:38:16;24.10;24.40
21085;DHT22;34247;50.064;19.970;2023-02-22T00:39:22;24.10;24.40
21085;DHT22;34247;50.064;19.970;2023-02-22T00:40:30;24.00;24.40
21085;DHT22;34247;50.064;19.970;2023-02-22T00:41:37;24.00;24.40
21085;DHT22;34247;50.064;19.970;2023-02-22T00:42:41;24.10;24.40
21085;DHT22;34247;50.064;19.970;2023-02-22T00:43:45;24.10;24.40
21085;DHT22;34247;50.064;19.970;2023-02-22T00:44:52;24.10;24.30
21085;DHT22;34247;50.064;19.970;2023-02-22T00:45:57;24.10;24.30
21085;DHT22;34247;50.064;19.970;2023-02-22T00:47:02;24.10;24.30
21085;DHT22;34247;50.064;19.970;2023-02-22T00:48:10;24.10;24.30
21085;DHT22;34247;50.064;19.970;2023-02-22T00:49:14;24.00;24.30
21085;DHT22;34247;50.064;19.970;2023-02-22T00:50:23;24.00;24.40
21085;DHT22;34247;50.064;19.970;2023-02-22T00:51:30;24.00;24.50
21085;DHT22;34247;50.064;19.970;2023-02-22T00:52:37;24.00;24.40
21085;DHT22;34247;50.064;19.970;2023-02-22T00:53:41;24.00;24.50
21085;DHT22;34247;50.064;19.970;2023-02-22T00:54:49;24.00;24.50
21085;DHT22;34247;50.064;19.970;2023-02-22T00:55:54;24.00;24.50
21085;DHT22;34247;50.064;19.970;2023-02-22T00:57:01;24.00;24.50
21085;DHT22;34247;50.064;19.970;2023-02-22T00:58:08;24.00;24.50
21085;DHT22;34247;50.064;19.970;2023-02-22T00:59:12;24.00;24.50
21085;DHT22;34247;50.064;19.970;2023-02-22T01:00:23;24.00;24.60
21085;DHT22;34247;50.064;19.970;2023-02-22T01:01:36;24.00;24.60
21085;DHT22;34247;50.064;19.970;2023-02-22T01:02:42;23.90;24.60
21085;DHT22;34247;50.064;19.970;2023-02-22T01:03:57;23.90;24.60
21085;DHT22;34247;50.064;19.970;2023-02-22T01:05:08;23.90;24.70
21085;DHT22;34247;50.064;19.970;2023-02-22T01:06:14;24.00;24.80
21085;DHT22;34247;50.064;19.970;2023-02-22T01:07:18;23.90;24.70
21085;DHT22;34247;50.064;19.970;2023-02-22T01:08:23;23.90;24.70
21085;DHT22;34247;50.064;19.970;2023-02-22T01:09:30;24.00;24.70
21085;DHT22;34247;50.064;19.970;2023-02-22T01:10:35;23.90;24.70
21085;DHT22;34247;50.064;19.970;2023-02-22T01:11:39;23.90;24.70
21085;DHT22;34247;50.064;19.970;2023-02-22T01:12:44;23.90;24.70
21085;DHT22;34247;50.064;19.970;2023-02-22T01:13:52;23.90;24.70
21085;DHT22;34247;50.064;19.970;2023-02-22T01:14:56;23.90;24.70
21085;DHT22;34247;50.064;19.970;2023-02-22T01:16:00;23.90;24.70
21085;DHT22;34247;50.064;19.970;2023-02-22T01:17:05;24.00;24.80
21085;DHT22;34247;50.064;19.970;2023-02-22T01:18:13;23.90;25.30
21085;DHT22;34247;50.064;19.970;2023-02-22T01:19:22;23.90;24.80
21085;DHT22;34247;50.064;19.970;2023-02-22T01:20:29;23.90;24.80
21085;DHT22;34247;50.064;19.970;2023-02-22T01:21:34;24.00;24.80
21085;DHT22;34247;50.064;19.970;2023-02-22T01:22:43;23.90;24.80
21085;DHT22;34247;50.064;19.970;2023-02-22T01:23:52;24.00;24.80
21085;DHT22;34247;50.064;19.970;2023-02-22T01:25:10;23.90;24.80
21085;DHT22;34247;50.064;19.970;2023-02-22T01:26:20;23.90;24.80
21085;DHT22;34247;50.064;19.970;2023-02-22T01:27:34;24.00;24.90
21085;DHT22;34247;50.064;19.970;2023-02-22T01:28:39;24.00;24.80
21085;DHT22;34247;50.064;19.970;2023-02-22T01:29:48;24.00;24.80
21085;DHT22;34247;50.064;19.970;2023-02-22T01:30:53;24.00;24.80
21085;DHT22;34247;50.064;19.970;2023-02-22T01:32:00;24.00;24.80
21085;DHT22;34247;50.064;19.970;2023-02-22T01:33:15;24.00;24.80
21085;DHT22;34247;50.064;19.970;2023-02-22T01:34:20;24.00;24.80
21085;DHT22;34247;50.064;19.970;2023-02-22T01:35:32;24.00;24.80
21085;DHT22;34247;50.064;19.970;2023-02-22T01:36:38;24.00;24.80
21085;DHT22;34247;50.064;19.970;2023-02-22T01:37:47;24.00;24.80
21085;DHT22;34247;50.064;19.970;2023-02-22T01:38:53;24.10;24.80
21085;DHT22;34247;50.064;19.970;2023-02-22T01:40:01;24.00;24.80
21085;DHT22;34247;50.064;19.970;2023-02-22T01:41:20;24.10;24.80
21085;DHT22;34247;50.064;19.970;2023-02-22T01:42:27;24.10;25.30
21085;DHT22;34247;50.064;19.970;2023-02-22T01:43:33;24.00;24.80
21085;DHT22;34247;50.064;19.970;2023-02-22T01:44:38;24.00;24.80
21085;DHT22;34247;50.064;19.970;2023-02-22T01:45:52;24.00;24.90
21085;DHT22;34247;50.064;19.970;2023-02-22T01:47:04;24.00;24.90
21085;DHT22;34247;50.064;19.970;2023-02-22T01:49:51;24.00;24.90
21085;DHT22;34247;50.064;19.970;2023-02-22T01:51:18;23.90;24.90
21085;DHT22;34247;50.064;19.970;2023-02-22T01:52:25;23.90;25.00
21085;DHT22;34247;50.064;19.970;2023-02-22T01:53:35;23.90;25.00
21085;DHT22;34247;50.064;19.970;2023-02-22T01:54:50;23.90;25.00
21085;DHT22;34247;50.064;19.970;2023-02-22T01:55:59;23.90;25.00
21085;DHT22;34247;50.064;19.970;2023-02-22T01:57:30;23.80;25.00
21085;DHT22;34247;50.064;19.970;2023-02-22T01:58:42;23.80;25.00
21085;DHT22;34247;50.064;19.970;2023-02-22T01:59:53;23.80;25.00
21085;DHT22;34247;50.064;19.970;2023-02-22T02:01:02;23.80;25.10
21085;DHT22;34247;50.064;19.970;2023-02-22T02:02:07;23.80;25.10
21085;DHT22;34247;50.064;19.970;2023-02-22T02:03:20;23.80;25.20
21085;DHT22;34247;50.064;19.970;2023-02-22T02:04:30;23.90;25.10
21085;DHT22;34247;50.064;19.970;2023-02-22T02:05:36;23.80;25.10
21085;DHT22;34247;50.064;19.970;2023-02-22T02:06:41;23.80;25.60
21085;DHT22;34247;50.064;19.970;2023-02-22T02:07:46;23.90;25.20
21085;DHT22;34247;50.064;19.970;2023-02-22T02:10:24;23.80;25.10
21085;DHT22;34247;50.064;19.970;2023-02-22T02:11:30;23.80;25.10
21085;DHT22;34247;50.064;19.970;2023-02-22T02:12:35;23.80;25.10
21085;DHT22;34247;50.064;19.970;2023-02-22T02:13:39;23.80;25.20
21085;DHT22;34247;50.064;19.970;2023-02-22T02:14:46;23.80;25.20
21085;DHT22;34247;50.064;19.970;2023-02-22T02:15:53;23.80;25.20
21085;DHT22;34247;50.064;19.970;2023-02-22T02:16:58;23.80;25.20
21085;DHT22;34247;50.064;19.970;2023-02-22T02:18:09;23.80;25.20
21085;DHT22;34247;50.064;19.970;2023-02-22T02:34:00;23.80;25.20
21085;DHT22;34247;50.064;19.970;2023-02-22T02:35:13;23.80;25.70
21085;DHT22;34247;50.064;19.970;2023-02-22T02:36:29;23.90;25.20
21085;DHT22;34247;50.064;19.970;2023-02-22T02:38:32;23.80;25.20
21085;DHT22;34247;50.064;19.970;2023-02-22T02:41:38;23.90;25.20
21085;DHT22;34247;50.064;19.970;2023-02-22T02:44:27;23.90;25.30
21085;DHT22;34247;50.064;19.970;2023-02-22T02:45:50;23.90;25.20
21085;DHT22;34247;50.064;19.970;2023-02-22T02:47:11;23.90;25.20
21085;DHT22;34247;50.064;19.970;2023-02-22T02:48:26;24.00;25.20
21085;DHT22;34247;50.064;19.970;2023-02-22T02:49:47;24.00;25.10
21085;DHT22;34247;50.064;19.970;2023-02-22T02:50:58;24.00;25.00
21085;DHT22;34247;50.064;19.970;2023-02-22T02:52:09;24.00;25.10
21085;DHT22;34247;50.064;19.970;2023-02-22T02:53:19;24.00;25.10
21085;DHT22;34247;50.064;19.970;2023-02-22T02:54:28;23.90;25.10
21085;DHT22;34247;50.064;19.970;2023-02-22T02:55:33;23.90;25.20
21085;DHT22;34247;50.064;19.970;2023-02-22T02:56:41;23.90;25.10
21085;DHT22;34247;50.064;19.970;2023-02-22T02:57:49;23.90;25.10
21085;DHT22;34247;50.064;19.970;2023-02-22T02:58:56;23.90;25.20
21085;DHT22;34247;50.064;19.970;2023-02-22T03:00:00;23.80;25.70
21085;DHT22;34247;50.064;19.970;2023-02-22T03:01:03;23.80;25.30
21085;DHT22;34247;50.064;19.970;2023-02-22T03:02:34;23.80;25.20
21085;DHT22;34247;50.064;19.970;2023-02-22T03:11:30;23.80;25.30
21085;DHT22;34247;50.064;19.970;2023-02-22T03:16:48;23.80;25.30
21085;DHT22;34247;50.064;19.970;2023-02-22T03:18:29;23.80;25.20
21085;DHT22;34247;50.064;19.970;2023-02-22T03:19:50;23.90;25.10
21085;DHT22;34247;50.064;19.970;2023-02-22T03:21:14;23.90;25.00
21085;DHT22;34247;50.064;19.970;2023-02-22T03:22:30;23.80;25.00
21085;DHT22;34247;50.064;19.970;2023-02-22T03:25:42;23.80;25.10
21085;DHT22;34247;50.064;19.970;2023-02-22T03:26:58;23.90;25.10
21085;DHT22;34247;50.064;19.970;2023-02-22T03:28:16;23.80;25.10
21085;DHT22;34247;50.064;19.970;2023-02-22T03:29:23;23.80;25.10
21085;DHT22;34247;50.064;19.970;2023-02-22T03:30:35;23.80;25.10
21085;DHT22;34247;50.064;19.970;2023-02-22T03:31:47;23.90;25.10
21085;DHT22;34247;50.064;19.970;2023-02-22T03:33:00;23.90;25.00
21085;DHT22;34247;50.064;19.970;2023-02-22T03:34:38;23.90;25.00
21085;DHT22;34247;50.064;19.970;2023-02-22T03:35:52;23.90;24.90
21085;DHT22;34247;50.064;19.970;2023-02-22T03:37:07;23.80;24.90
21085;DHT22;34247;50.064;19.970;2023-02-22T03:38:19;23.80;25.00
21085;DHT22;34247;50.064;19.970;2023-02-22T03:39:25;23.80;24.90
21085;DHT22;34247;50.064;19.970;2023-02-22T03:40:36;23.80;25.00
21085;DHT22;34247;50.064;19.970;2023-02-22T03:41:47;23.80;25.00
21085;DHT22;34247;50.064;19.970;2023-02-22T03:43:05;23.80;25.00
21085;DHT22;34247;50.064;19.970;2023-02-22T03:44:15;23.80;25.00
21085;DHT22;34247;50.064;19.970;2023-02-22T03:45:25;23.80;25.00
21085;DHT22;34247;50.064;19.970;2023-02-22T03:46:31;23.80;25.00
21085;DHT22;34247;50.064;19.970;2023-02-22T03:47:46;23.80;25.00
21085;DHT22;34247;50.064;19.970;2023-02-22T03:48:58;23.80;25.00
21085;DHT22;34247;50.064;19.970;2023-02-22T03:50:11;23.70;25.00
21085;DHT22;34247;50.064;19.970;2023-02-22T03:51:21;23.70;25.00
21085;DHT22;34247;50.064;19.970;2023-02-22T03:52:26;23.80;25.00
21085;DHT22;34247;50.064;19.970;2023-02-22T03:53:33;23.80;25.00
21085;DHT22;34247;50.064;19.970;2023-02-22T03:54:39;23.80;25.00
21085;DHT22;34247;50.064;19.970;2023-02-22T03:55:44;23.80;25.00
21085;DHT22;34247;50.064;19.970;2023-02-22T03:56:57;23.80;25.00
21085;DHT22;34247;50.064;19.970;2023-02-22T03:58:11;23.80;25.00
21085;DHT22;34247;50.064;19.970;2023-02-22T03:59:17;23.80;25.00
21085;DHT22;34247;50.064;19.970;2023-02-22T04:00:24;23.80;25.00
21085;DHT22;34247;50.064;19.970;2023-02-22T04:01:31;23.80;25.00
21085;DHT22;34247;50.064;19.970;2023-02-22T04:02:35;23.80;25.10
21085;DHT22;34247;50.064;19.970;2023-02-22T04:03:39;23.80;25.10
21085;DHT22;34247;50.064;19.970;2023-02-22T04:04:45;23.80;25.10
21085;DHT22;34247;50.064;19.970;2023-02-22T04:08:22;23.80;25.00
21085;DHT22;34247;50.064;19.970;2023-02-22T04:09:28;23.80;25.00
21085;DHT22;34247;50.064;19.970;2023-02-22T04:10:32;23.80;25.00
21085;DHT22;34247;50.064;19.970;2023-02-22T04:11:36;23.80;25.10
21085;DHT22;34247;50.064;19.970;2023-02-22T04:12:40;23.80;25.10
21085;DHT22;34247;50.064;19.970;2023-02-22T04:13:44;23.80;25.10
21085;DHT22;34247;50.064;19.970;2023-02-22T04:14:47;23.80;25.00
21085;DHT22;34247;50.064;19.970;2023-02-22T04:15:52;23.80;25.00
21085;DHT22;34247;50.064;19.970;2023-02-22T04:16:56;23.80;25.00
21085;DHT22;34247;50.064;19.970;2023-02-22T04:18:00;23.80;25.00
21085;DHT22;34247;50.064;19.970;2023-02-22T04:19:04;23.80;25.00
21085;DHT22;34247;50.064;19.970;2023-02-22T04:20:12;23.80;25.00
21085;DHT22;34247;50.064;19.970;2023-02-22T04:21:16;23.80;25.00
21085;DHT22;34247;50.064;19.970;2023-02-22T04:22:20;23.80;25.00
21085;DHT22;34247;50.064;19.970;2023-02-22T04:23:24;23.80;25.00
21085;DHT22;34247;50.064;19.970;2023-02-22T04:24:29;23.80;25.00
21085;DHT22;34247;50.064;19.970;2023-02-22T04:25:33;23.80;25.00
21085;DHT22;34247;50.064;19.970;2023-02-22T04:26:37;23.80;25.00
21085;DHT22;34247;50.064;19.970;2023-02-22T04:27:40;23.80;25.00
21085;DHT22;34247;50.064;19.970;2023-02-22T04:28:44;23.80;25.00
21085;DHT22;34247;50.064;19.970;2023-02-22T04:29:48;23.80;25.00
21085;DHT22;34247;50.064;19.970;2023-02-22T04:30:53;23.80;25.10
21085;DHT22;34247;50.064;19.970;2023-02-22T04:31:57;23.80;25.10
21085;DHT22;34247;50.064;19.970;2023-02-22T04:33:01;23.80;25.10
21085;DHT22;34247;50.064;19.970;2023-02-22T04:34:05;23.80;25.10
21085;DHT22;34247;50.064;19.970;2023-02-22T04:35:13;23.80;25.20
21085;DHT22;34247;50.064;19.970;2023-02-22T04:36:17;23.80;25.20
21085;DHT22;34247;50.064;19.970;2023-02-22T04:37:21;23.80;25.10
21085;DHT22;34247;50.064;19.970;2023-02-22T04:38:25;23.80;25.20
21085;DHT22;34247;50.064;19.970;2023-02-22T04:39:29;23.80;25.20
21085;DHT22;34247;50.064;19.970;2023-02-22T04:40:33;23.80;25.20
21085;DHT22;34247;50.064;19.970;2023-02-22T04:41:37;23.80;25.20
21085;DHT22;34247;50.064;19.970;2023-02-22T04:42:41;23.80;25.20
21085;DHT22;34247;50.064;19.970;2023-02-22T04:43:46;23.80;25.20
21085;DHT22;34247;50.064;19.970;2023-02-22T04:44:53;23.80;25.20
21085;DHT22;34247;50.064;19.970;2023-02-22T04:45:57;23.80;25.20
21085;DHT22;34247;50.064;19.970;2023-02-22T04:47:00;23.80;25.20
21085;DHT22;34247;50.064;19.970;2023-02-22T04:48:04;23.80;25.20
21085;DHT22;34247;50.064;19.970;2023-02-22T04:49:17;23.80;25.20
21085;DHT22;34247;50.064;19.970;2023-02-22T04:50:21;23.80;25.20
21085;DHT22;34247;50.064;19.970;2023-02-22T04:51:25;23.80;25.30
21085;DHT22;34247;50.064;19.970;2023-02-22T04:52:29;23.80;25.20
21085;DHT22;34247;50.064;19.970;2023-02-22T04:53:34;23.80;25.30
21085;DHT22;34247;50.064;19.970;2023-02-22T04:54:40;23.80;25.30
21085;DHT22;34247;50.064;19.970;2023-02-22T04:55:45;23.80;25.30
21085;DHT22;34247;50.064;19.970;2023-02-22T04:56:49;23.70;25.30
21085;DHT22;34247;50.064;19.970;2023-02-22T04:57:55;23.80;25.30
21085;DHT22;34247;50.064;19.970;2023-02-22T04:58:59;23.80;25.30
21085;DHT22;34247;50.064;19.970;2023-02-22T05:00:05;23.80;25.30
21085;DHT22;34247;50.064;19.970;2023-02-22T05:01:14;23.70;25.20
21085;DHT22;34247;50.064;19.970;2023-02-22T05:02:20;23.70;25.20
21085;DHT22;34247;50.064;19.970;2023-02-22T05:03:24;23.70;25.20
21085;DHT22;34247;50.064;19.970;2023-02-22T05:04:27;23.70;25.20
21085;DHT22;34247;50.064;19.970;2023-02-22T05:05:32;23.70;25.30
21085;DHT22;34247;50.064;19.970;2023-02-22T05:06:36;23.70;25.20
21085;DHT22;34247;50.064;19.970;2023-02-22T05:07:40;23.80;25.30
21085;DHT22;34247;50.064;19.970;2023-02-22T05:08:44;23.80;25.30
21085;DHT22;34247;50.064;19.970;2023-02-22T05:09:48;23.80;25.30
21085;DHT22;34247;50.064;19.970;2023-02-22T05:10:52;23.80;25.30
21085;DHT22;34247;50.064;19.970;2023-02-22T05:11:56;23.80;25.30
21085;DHT22;34247;50.064;19.970;2023-02-22T05:13:00;23.80;25.30
21085;DHT22;34247;50.064;19.970;2023-02-22T05:14:06;23.70;25.30
21085;DHT22;34247;50.064;19.970;2023-02-22T05:15:17;23.70;25.30
21085;DHT22;34247;50.064;19.970;2023-02-22T05:16:22;23.80;25.40
21085;DHT22;34247;50.064;19.970;2023-02-22T05:17:27;23.80;25.40
21085;DHT22;34247;50.064;19.970;2023-02-22T05:18:31;23.70;25.30
21085;DHT22;34247;50.064;19.970;2023-02-22T05:19:35;23.70;25.40
21085;DHT22;34247;50.064;19.970;2023-02-22T05:20:39;23.70;25.40
21085;DHT22;34247;50.064;19.970;2023-02-22T05:21:43;23.70;25.40
21085;DHT22;34247;50.064;19.970;2023-02-22T05:22:47;23.70;25.40
21085;DHT22;34247;50.064;19.970;2023-02-22T05:23:51;23.70;25.40
21085;DHT22;34247;50.064;19.970;2023-02-22T05:24:55;23.70;25.50
21085;DHT22;34247;50.064;19.970;2023-02-22T05:25:59;23.70;25.50
21085;DHT22;34247;50.064;19.970;2023-02-22T05:27:03;23.70;25.50
21085;DHT22;34247;50.064;19.970;2023-02-22T05:28:11;23.70;25.50
21085;DHT22;34247;50.064;19.970;2023-02-22T05:29:17;23.70;25.50
21085;DHT22;34247;50.064;19.970;2023-02-22T05:30:23;23.70;25.50
21085;DHT22;34247;50.064;19.970;2023-02-22T05:31:32;23.60;25.40
21085;DHT22;34247;50.064;19.970;2023-02-22T05:32:36;23.60;25.50
21085;DHT22;34247;50.064;19.970;2023-02-22T05:33:40;23.70;25.50
21085;DHT22;34247;50.064;19.970;2023-02-22T05:34:44;23.70;25.50
21085;DHT22;34247;50.064;19.970;2023-02-22T05:35:48;23.70;25.50
21085;DHT22;34247;50.064;19.970;2023-02-22T05:36:56;23.70;25.50
21085;DHT22;34247;50.064;19.970;2023-02-22T05:38:00;23.70;25.40
21085;DHT22;34247;50.064;19.970;2023-02-22T05:39:05;23.70;25.40
21085;DHT22;34247;50.064;19.970;2023-02-22T05:40:13;23.70;25.50
21085;DHT22;34247;50.064;19.970;2023-02-22T05:41:16;23.70;25.50
21085;DHT22;34247;50.064;19.970;2023-02-22T05:42:21;23.60;25.40
21085;DHT22;34247;50.064;19.970;2023-02-22T05:43:26;23.60;25.40
21085;DHT22;34247;50.064;19.970;2023-02-22T05:44:29;23.60;25.50
21085;DHT22;34247;50.064;19.970;2023-02-22T05:45:33;23.60;25.50
21085;DHT22;34247;50.064;19.970;2023-02-22T05:46:40;23.60;25.50
21085;DHT22;34247;50.064;19.970;2023-02-22T05:47:44;23.60;25.50
21085;DHT22;34247;50.064;19.970;2023-02-22T05:48:49;23.60;25.40
21085;DHT22;34247;50.064;19.970;2023-02-22T05:49:53;23.60;25.50
21085;DHT22;34247;50.064;19.970;2023-02-22T05:50:58;23.60;25.50
21085;DHT22;34247;50.064;19.970;2023-02-22T05:52:02;23.60;25.50
21085;DHT22;34247;50.064;19.970;2023-02-22T05:53:07;23.60;25.50
21085;DHT22;34247;50.064;19.970;2023-02-22T05:54:16;23.60;25.50
21085;DHT22;34247;50.064;19.970;2023-02-22T05:55:22;23.60;25.50
21085;DHT22;34247;50.064;19.970;2023-02-22T05:56:27;23.60;25.60
21085;DHT22;34247;50.064;19.970;2023-02-22T05:57:33;23.60;25.60
21085;DHT22;34247;50.064;19.970;2023-02-22T05:58:38;23.60;25.60
21085;DHT22;34247;50.064;19.970;2023-02-22T05:59:41;23.60;25.60
21085;DHT22;34247;50.064;19.970;2023-02-22T06:00:45;23.60;25.60
21085;DHT22;34247;50.064;19.970;2023-02-22T06:01:49;23.60;25.50
21085;DHT22;34247;50.064;19.970;2023-02-22T06:02:56;23.60;25.60
21085;DHT22;34247;50.064;19.970;2023-02-22T06:04:11;23.60;25.50
21085;DHT22;34247;50.064;19.970;2023-02-22T06:05:15;23.60;25.50
21085;DHT22;34247;50.064;19.970;2023-02-22T06:06:20;23.60;25.50
21085;DHT22;34247;50.064;19.970;2023-02-22T06:07:27;23.60;25.60
21085;DHT22;34247;50.064;19.970;2023-02-22T06:08:31;23.60;25.60
21085;DHT22;34247;50.064;19.970;2023-02-22T06:09:35;23.60;25.60
21085;DHT22;34247;50.064;19.970;2023-02-22T06:10:39;23.60;25.60
21085;DHT22;34247;50.064;19.970;2023-02-22T06:11:43;23.60;25.70
21085;DHT22;34247;50.064;19.970;2023-02-22T06:12:47;23.60;25.60
21085;DHT22;34247;50.064;19.970;2023-02-22T06:13:53;23.50;25.60
21085;DHT22;34247;50.064;19.970;2023-02-22T06:14:57;23.50;25.70
21085;DHT22;34247;50.064;19.970;2023-02-22T06:16:02;23.50;25.70
21085;DHT22;34247;50.064;19.970;2023-02-22T06:17:11;23.50;25.70
21085;DHT22;34247;50.064;19.970;2023-02-22T06:18:17;23.50;25.70
21085;DHT22;34247;50.064;19.970;2023-02-22T06:19:20;23.50;25.70
21085;DHT22;34247;50.064;19.970;2023-02-22T06:20:26;23.50;25.70
21085;DHT22;34247;50.064;19.970;2023-02-22T06:21:31;23.50;25.70
21085;DHT22;34247;50.064;19.970;2023-02-22T06:22:35;23.50;25.80
21085;DHT22;34247;50.064;19.970;2023-02-22T06:23:38;23.50;25.80
21085;DHT22;34247;50.064;19.970;2023-02-22T06:24:42;23.60;25.80
21085;DHT22;34247;50.064;19.970;2023-02-22T06:25:47;23.50;25.80
21085;DHT22;34247;50.064;19.970;2023-02-22T06:26:56;23.60;25.80
21085;DHT22;34247;50.064;19.970;2023-02-22T06:28:04;23.60;25.90
21085;DHT22;34247;50.064;19.970;2023-02-22T06:29:12;23.60;25.80
21085;DHT22;34247;50.064;19.970;2023-02-22T06:30:17;23.60;26.40
21085;DHT22;34247;50.064;19.970;2023-02-22T06:31:23;23.60;25.90
21085;DHT22;34247;50.064;19.970;2023-02-22T06:32:27;23.60;25.90
21085;DHT22;34247;50.064;19.970;2023-02-22T06:33:31;23.60;25.90
21085;DHT22;34247;50.064;19.970;2023-02-22T06:34:35;23.60;25.90
21085;DHT22;34247;50.064;19.970;2023-02-22T06:35:39;23.60;25.90
21085;DHT22;34247;50.064;19.970;2023-02-22T06:36:43;23.60;25.90
21085;DHT22;34247;50.064;19.970;2023-02-22T06:37:50;23.60;25.90
21085;DHT22;34247;50.064;19.970;2023-02-22T06:38:57;23.60;25.90
21085;DHT22;34247;50.064;19.970;2023-02-22T06:40:00;23.60;25.90
21085;DHT22;34247;50.064;19.970;2023-02-22T06:41:11;23.60;25.80
21085;DHT22;34247;50.064;19.970;2023-02-22T06:42:14;23.60;25.80
21085;DHT22;34247;50.064;19.970;2023-02-22T06:43:20;23.60;25.80
21085;DHT22;34247;50.064;19.970;2023-02-22T06:44:25;23.60;25.70
21085;DHT22;34247;50.064;19.970;2023-02-22T06:45:29;23.60;25.80
21085;DHT22;34247;50.064;19.970;2023-02-22T06:46:33;23.60;25.80
21085;DHT22;34247;50.064;19.970;2023-02-22T06:47:38;23.70;25.80
21085;DHT22;34247;50.064;19.970;2023-02-22T06:48:43;23.70;25.70
21085;DHT22;34247;50.064;19.970;2023-02-22T06:49:57;23.70;25.80
21085;DHT22;34247;50.064;19.970;2023-02-22T06:51:03;23.70;25.70
21085;DHT22;34247;50.064;19.970;2023-02-22T06:52:09;23.70;25.70
21085;DHT22;34247;50.064;19.970;2023-02-22T06:53:13;23.70;25.70
21085;DHT22;34247;50.064;19.970;2023-02-22T06:54:17;23.70;25.70
21085;DHT22;34247;50.064;19.970;2023-02-22T06:55:24;23.70;25.60
21085;DHT22;34247;50.064;19.970;2023-02-22T06:56:32;23.70;25.60
21085;DHT22;34247;50.064;19.970;2023-02-22T06:57:36;23.70;25.60
21085;DHT22;34247;50.064;19.970;2023-02-22T06:58:39;23.80;25.60
21085;DHT22;34247;50.064;19.970;2023-02-22T06:59:43;23.80;25.50
21085;DHT22;34247;50.064;19.970;2023-02-22T07:00:48;23.80;25.50
21085;DHT22;34247;50.064;19.970;2023-02-22T07:01:53;23.80;25.50
21085;DHT22;34247;50.064;19.970;2023-02-22T07:02:58;23.80;25.50
21085;DHT22;34247;50.064;19.970;2023-02-22T07:04:02;23.80;25.50
21085;DHT22;34247;50.064;19.970;2023-02-22T07:05:13;23.80;25.40
21085;DHT22;34247;50.064;19.970;2023-02-22T07:06:19;23.80;25.50
21085;DHT22;34247;50.064;19.970;2023-02-22T07:07:23;23.80;25.50
21085;DHT22;34247;50.064;19.970;2023-02-22T07:08:28;23.80;25.50
21085;DHT22;34247;50.064;19.970;2023-02-22T07:09:33;23.80;25.40
21085;DHT22;34247;50.064;19.970;2023-02-22T07:10:39;23.90;25.40
21085;DHT22;34247;50.064;19.970;2023-02-22T07:11:43;23.90;25.40
21085;DHT22;34247;50.064;19.970;2023-02-22T07:12:47;23.90;25.30
21085;DHT22;34247;50.064;19.970;2023-02-22T07:13:51;23.90;25.30
21085;DHT22;34247;50.064;19.970;2023-02-22T07:14:55;23.90;25.30
21085;DHT22;34247;50.064;19.970;2023-02-22T07:16:03;23.90;25.30
21085;DHT22;34247;50.064;19.970;2023-02-22T07:17:11;23.90;25.20
21085;DHT22;34247;50.064;19.970;2023-02-22T07:18:15;23.90;25.50
21085;DHT22;34247;50.064;19.970;2023-02-22T07:19:19;23.90;25.20
21085;DHT22;34247;50.064;19.970;2023-02-22T07:20:25;23.90;25.30
21085;DHT22;34247;50.064;19.970;2023-02-22T07:21:30;23.90;25.30
21085;DHT22;34247;50.064;19.970;2023-02-22T07:22:34;23.90;25.60
21085;DHT22;34247;50.064;19.970;2023-02-22T07:23:38;23.90;25.30
21085;DHT22;34247;50.064;19.970;2023-02-22T07:24:42;23.90;25.40
21085;DHT22;34247;50.064;19.970;2023-02-22T07:25:47;23.90;25.40
21085;DHT22;34247;50.064;19.970;2023-02-22T07:26:51;23.90;25.30
21085;DHT22;34247;50.064;19.970;2023-02-22T07:27:56;24.00;25.20
21085;DHT22;34247;50.064;19.970;2023-02-22T07:29:02;24.00;25.10
21085;DHT22;34247;50.064;19.970;2023-02-22T07:30:21;24.00;25.20
21085;DHT22;34247;50.064;19.970;2023-02-22T07:31:37;24.00;25.20
21085;DHT22;34247;50.064;19.970;2023-02-22T07:32:42;24.00;25.20
21085;DHT22;34247;50.064;19.970;2023-02-22T07:33:47;24.00;25.10
21085;DHT22;34247;50.064;19.970;2023-02-22T07:34:52;24.00;25.00
21085;DHT22;34247;50.064;19.970;2023-02-22T07:36:09;24.00;25.10
21085;DHT22;34247;50.064;19.970;2023-02-22T07:37:18;24.00;25.00